Time;durP1;ratioP1;P1;durP2;ratioP2;P2;SDS_P1;SDS_P2;PMS_P1;PMS_P2;Temp;Humidity;BMP_temperature;BMP_pressure;BME280_temperature;BME280_humidity;BME280_pressure;Samples;Min_cycle;Max_cycle;Signal;HPM_P1;HPM_P2
2024/01/10 07:57:49;;;;;;;24.23;9.88;;;;;;;;;;2084298;28;20570;-64
2024/01/10 07:58:51;;;;;;;26.88;12.00;;;;;;;;;;2063274;28;20217;-64
2024/01/10 07:59:55;;;;;;;28.88;13.10;;;;;;;;;;2061147;28;20240;-64
2024/01/10 08:00:57;;;;;;;35.45;13.68;;;;;;;;;;2061959;28;20244;-62
2024/01/10 08:02:00;;;;;;;28.95;12.35;;;;;;;;;;2066734;28;20741;-62
2024/01/10 08:14:08;;;;;;;27.38;11.90;;;;;;;;;;2108334;27;20539;-63
2024/01/10 08:15:10;;;;;;;28.55;11.88;;;;;;;;;;2102624;28;20195;-63
2024/01/10 08:16:12;;;;;;;31.85;12.68;;;;;;;;;;2103192;28;20195;-63
2024/01/10 08:17:15;;;;;;;33.55;13.82;;;;;;;;;;2097093;28;20192;-63
2024/01/10 08:18:16;;;;;;;28.70;13.07;;;;;;;;;;2098687;28;20219;-65
2024/01/10 08:19:18;;;;;;;25.80;12.00;;;;;;;;;;2094567;28;20215;-65
2024/01/10 08:20:20;;;;;;;26.63;13.00;;;;;;;;;;2093529;28;20258;-64
2024/01/10 08:21:22;;;;;;;30.80;13.63;;;;;;;;;;2102723;28;20720;-65
2024/01/10 08:22:24;;;;;;;31.70;13.70;;;;;;;;;;2102585;28;20274;-65
2024/01/10 08:23:28;;;;;;;27.67;13.95;;;;;;;;;;2097708;28;20261;-65
2024/01/10 08:24:30;;;;;;;32.58;14.95;;;;;;;;;;2096070;28;20389;-65
2024/01/10 08:25:31;;;;;;;35.20;13.45;;;;;;;;;;2093237;28;20192;-65
2024/01/10 08:26:33;;;;;;;34.55;14.68;;;;;;;;;;2097133;28;20646;-65
2024/01/10 08:27:34;;;;;;;28.65;13.85;;;;;;;;;;2097985;28;20190;-65
2024/01/10 08:28:36;;;;;;;32.25;13.23;;;;;;;;;;2097646;28;20215;-65
2024/01/10 08:29:38;;;;;;;28.30;13.93;;;;;;;;;;2098267;28;20380;-65
2024/01/10 08:30:40;;;;;;;27.15;13.52;;;;;;;;;;2098859;28;20186;-65
2024/01/10 08:31:41;;;;;;;30.92;12.93;;;;;;;;;;2095604;28;20214;-65
2024/01/10 08:32:43;;;;;;;35.30;14.55;;;;;;;;;;2095043;28;20202;-65
2024/01/10 08:33:45;;;;;;;28.55;15.13;;;;;;;;;;2096813;28;20234;-65
2024/01/10 08:34:47;;;;;;;30.25;14.27;;;;;;;;;;2096101;28;20203;-65
2024/01/10 08:35:48;;;;;;;33.70;14.35;;;;;;;;;;2094752;28;20671;-66
2024/01/10 08:36:51;;;;;;;28.73;13.50;;;;;;;;;;2094531;28;20206;-65
2024/01/10 08:37:52;;;;;;;30.95;14.13;;;;;;;;;;2094938;28;20424;-66
2024/01/10 08:38:53;;;;;;;34.75;14.25;;;;;;;;;;2096447;28;20764;-66
2024/01/10 08:39:55;;;;;;;30.60;13.70;;;;;;;;;;2096933;28;20196;-63
2024/01/10 08:40:56;;;;;;;35.97;14.43;;;;;;;;;;2091503;28;20195;-63
2024/01/10 08:41:58;;;;;;;24.55;12.18;;;;;;;;;;2093084;28;20203;-63
2024/01/10 08:42:59;;;;;;;30.80;13.70;;;;;;;;;;2093888;28;20200;-64
2024/01/10 08:44:02;;;;;;;35.17;14.93;;;;;;;;;;2094342;28;20203;-64
2024/01/10 08:45:04;;;;;;;38.72;15.02;;;;;;;;;;2094066;28;20652;-64
2024/01/10 08:46:06;;;;;;;30.35;13.70;;;;;;;;;;2097064;28;20814;-64
2024/01/10 08:47:08;;;;;;;34.13;14.77;;;;;;;;;;2094376;28;20643;-64
2024/01/10 08:48:11;;;;;;;31.92;15.05;;;;;;;;;;2093827;28;20563;-64
2024/01/10 08:49:13;;;;;;;26.42;14.10;;;;;;;;;;2095644;28;20228;-64
2024/01/10 08:50:14;;;;;;;32.65;14.05;;;;;;;;;;2095033;28;20223;-64
2024/01/10 08:51:16;;;;;;;27.58;12.55;;;;;;;;;;2094583;28;20238;-64
2024/01/10 08:52:18;;;;;;;29.90;13.73;;;;;;;;;;2092345;28;20199;-64
2024/01/10 08:53:19;;;;;;;28.05;14.52;;;;;;;;;;2095229;28;20218;-64
2024/01/10 08:54:22;;;;;;;28.95;14.20;;;;;;;;;;2096296;28;20216;-64
2024/01/10 08:55:23;;;;;;;28.58;14.38;;;;;;;;;;2095870;28;20238;-64
2024/01/10 08:56:25;;;;;;;35.08;13.95;;;;;;;;;;2095257;28;20299;-64
2024/01/10 08:57:27;;;;;;;29.63;14.50;;;;;;;;;;2093536;28;20230;-64
2024/01/10 08:58:29;;;;;;;31.55;15.05;;;;;;;;;;2093900;28;20242;-64
2024/01/10 08:59:30;;;;;;;31.00;13.88;;;;;;;;;;2096268;28;20195;-64
2024/01/10 09:00:32;;;;;;;36.58;14.20;;;;;;;;;;2092803;28;20285;-64
2024/01/10 09:01:33;;;;;;;30.10;14.90;;;;;;;;;;2094770;28;20681;-64
2024/01/10 09:02:36;;;;;;;33.83;14.20;;;;;;;;;;2095183;28;20265;-64
2024/01/10 09:03:38;;;;;;;32.10;14.15;;;;;;;;;;2092783;28;20231;-70
2024/01/10 09:04:40;;;;;;;26.85;13.75;;;;;;;;;;2093950;28;20196;-71
2024/01/10 09:05:41;;;;;;;30.40;15.23;;;;;;;;;;2095307;28;20220;-71
2024/01/10 09:06:53;;;;;;;31.83;14.13;;;;;;;;;;2095111;28;20189;-71
2024/01/10 09:07:55;;;;;;;31.27;14.50;;;;;;;;;;2093634;28;20204;-70
2024/01/10 09:08:56;;;;;;;32.17;13.63;;;;;;;;;;2095259;28;20206;-71
2024/01/10 09:09:58;;;;;;;33.33;16.00;;;;;;;;;;2095309;28;20661;-70
2024/01/10 09:10:59;;;;;;;31.00;14.88;;;;;;;;;;2095168;28;20263;-70
2024/01/10 09:12:01;;;;;;;29.80;14.55;;;;;;;;;;2094656;28;20241;-70
2024/01/10 09:13:03;;;;;;;31.05;13.77;;;;;;;;;;2093384;28;20593;-70
2024/01/10 09:14:04;;;;;;;34.20;15.90;;;;;;;;;;2093849;28;20314;-69
2024/01/10 09:15:12;;;;;;;36.05;15.82;;;;;;;;;;2095889;28;20388;-70
2024/01/10 09:16:14;;;;;;;30.52;14.13;;;;;;;;;;2093120;28;20215;-70
2024/01/10 09:17:15;;;;;;;41.33;15.10;;;;;;;;;;2094033;28;20195;-69
2024/01/10 09:18:17;;;;;;;29.10;13.95;;;;;;;;;;2087574;28;20227;-68
2024/01/10 09:19:19;;;;;;;31.77;14.93;;;;;;;;;;2095121;28;20196;-69
2024/01/10 09:20:20;;;;;;;34.22;16.70;;;;;;;;;;2095972;28;20231;-68
2024/01/10 09:21:23;;;;;;;29.15;15.00;;;;;;;;;;2095532;28;20192;-68
2024/01/10 09:22:24;;;;;;;38.08;16.25;;;;;;;;;;2097042;28;20226;-69
2024/01/10 09:23:27;;;;;;;32.50;14.43;;;;;;;;;;2096558;28;20225;-68
2024/01/10 09:24:29;;;;;;;33.15;16.73;;;;;;;;;;2093344;28;20234;-68
2024/01/10 09:25:31;;;;;;;39.25;16.50;;;;;;;;;;2089338;28;20228;-67
2024/01/10 09:26:32;;;;;;;35.55;16.77;;;;;;;;;;2090276;28;20246;-68
2024/01/10 09:27:34;;;;;;;32.30;17.38;;;;;;;;;;2089618;28;20224;-68
2024/01/10 09:28:35;;;;;;;33.72;17.20;;;;;;;;;;2086787;28;20259;-68
2024/01/10 09:29:36;;;;;;;35.38;16.45;;;;;;;;;;2089184;28;20262;-68
2024/01/10 09:30:39;;;;;;;32.47;16.55;;;;;;;;;;2088373;28;20541;-67
2024/01/10 09:31:43;;;;;;;33.40;16.90;;;;;;;;;;2088821;28;20200;-68
2024/01/10 09:32:45;;;;;;;32.85;16.55;;;;;;;;;;2088663;28;20252;-62
2024/01/10 09:33:47;;;;;;;34.50;16.50;;;;;;;;;;2089286;28;20242;-63
2024/01/10 09:34:48;;;;;;;33.78;16.85;;;;;;;;;;2091305;28;20217;-63
2024/01/10 09:35:52;;;;;;;36.35;16.77;;;;;;;;;;2087645;28;20262;-63
2024/01/10 09:36:53;;;;;;;34.58;15.93;;;;;;;;;;2088601;28;20764;-63
2024/01/10 09:37:55;;;;;;;37.72;17.50;;;;;;;;;;2088945;28;20415;-64
2024/01/10 09:38:56;;;;;;;33.13;16.80;;;;;;;;;;2089845;28;20300;-64
2024/01/10 09:39:58;;;;;;;38.42;17.20;;;;;;;;;;2089406;28;20220;-63
2024/01/10 09:41:02;;;;;;;33.45;17.02;;;;;;;;;;2088276;28;20199;-64
2024/01/10 09:42:06;;;;;;;32.10;16.95;;;;;;;;;;2088360;28;20603;-64
2024/01/10 09:43:08;;;;;;;29.65;16.92;;;;;;;;;;2089824;28;20589;-64
2024/01/10 09:44:09;;;;;;;32.75;17.30;;;;;;;;;;2087102;28;20188;-64
2024/01/10 09:45:14;;;;;;;36.58;17.58;;;;;;;;;;2088978;28;20684;-64
2024/01/10 09:46:17;;;;;;;30.00;15.52;;;;;;;;;;2088411;28;20585;-64
2024/01/10 09:47:20;;;;;;;39.67;17.23;;;;;;;;;;2089674;28;20191;-64
2024/01/10 09:48:21;;;;;;;37.63;17.08;;;;;;;;;;2086232;28;20220;-64
2024/01/10 09:49:23;;;;;;;31.55;16.83;;;;;;;;;;2089047;28;20195;-64
2024/01/10 09:50:25;;;;;;;35.53;17.15;;;;;;;;;;2091182;28;20722;-64
2024/01/10 09:51:28;;;;;;;40.25;18.08;;;;;;;;;;2087280;28;20358;-63
2024/01/10 09:52:32;;;;;;;38.50;18.50;;;;;;;;;;2090326;28;20280;-63
2024/01/10 09:53:36;;;;;;;41.63;18.92;;;;;;;;;;2088314;28;20224;-64
2024/01/10 09:54:40;;;;;;;36.22;17.60;;;;;;;;;;2088752;28;20212;-63
2024/01/10 09:55:42;;;;;;;36.55;17.73;;;;;;;;;;2087521;28;20196;-63
2024/01/10 09:56:44;;;;;;;36.22;18.55;;;;;;;;;;2090843;28;20201;-68
2024/01/10 09:57:45;;;;;;;38.85;17.58;;;;;;;;;;2088211;28;20197;-68
2024/01/10 09:58:48;;;;;;;33.80;16.83;;;;;;;;;;2088602;28;20691;-68
2024/01/10 09:59:51;;;;;;;36.42;17.17;;;;;;;;;;2085296;28;20232;-69
2024/01/10 10:00:53;;;;;;;39.55;16.98;;;;;;;;;;2088978;28;20189;-69
2024/01/10 10:01:56;;;;;;;36.67;16.98;;;;;;;;;;2089951;28;20196;-69
2024/01/10 10:02:59;;;;;;;41.55;17.90;;;;;;;;;;2087829;28;20205;-69
2024/01/10 10:04:01;;;;;;;42.35;16.95;;;;;;;;;;2081784;28;20307;-69
2024/01/10 10:05:05;;;;;;;33.75;17.70;;;;;;;;;;2079737;28;20201;-68
2024/01/10 10:06:09;;;;;;;37.78;17.92;;;;;;;;;;2091244;28;20250;-68
2024/01/10 10:07:16;;;;;;;38.95;17.90;;;;;;;;;;2087514;28;20288;-63
2024/01/10 10:08:22;;;;;;;36.22;18.40;;;;;;;;;;2089944;28;20205;-63
2024/01/10 10:09:25;;;;;;;36.72;16.67;;;;;;;;;;2086899;28;20196;-63
2024/01/10 10:10:27;;;;;;;35.58;17.33;;;;;;;;;;2089095;28;20200;-63
2024/01/10 10:11:29;;;;;;;34.30;18.00;;;;;;;;;;2089072;28;20197;-63
2024/01/10 10:12:43;;;;;;;37.80;17.85;;;;;;;;;;2088206;28;20200;-63
2024/01/10 10:13:45;;;;;;;31.08;15.98;;;;;;;;;;2087936;28;20235;-63
2024/01/10 10:14:46;;;;;;;32.58;16.80;;;;;;;;;;2089020;28;20209;-65
2024/01/10 10:15:57;;;;;;;37.20;18.25;;;;;;;;;;2089421;28;20197;-64
2024/01/10 10:17:17;;;;;;;33.05;16.50;;;;;;;;;;2088264;28;20383;-63
2024/01/10 10:18:21;;;;;;;41.15;19.13;;;;;;;;;;2085268;28;20227;-63
2024/01/10 10:19:23;;;;;;;35.80;19.88;;;;;;;;;;2086789;28;20201;-64
2024/01/10 10:20:38;;;;;;;33.35;16.35;;;;;;;;;;2089309;28;20187;-63
2024/01/10 10:21:39;;;;;;;32.42;17.42;;;;;;;;;;2090350;28;20242;-70
2024/01/10 10:22:57;;;;;;;32.03;16.98;;;;;;;;;;2090054;28;20845;-69
2024/01/10 10:23:59;;;;;;;36.38;18.38;;;;;;;;;;2079980;28;20251;-69
2024/01/10 10:25:01;;;;;;;41.25;17.35;;;;;;;;;;2090436;28;20254;-69
2024/01/10 10:26:18;;;;;;;35.92;17.95;;;;;;;;;;2089842;28;20261;-69
2024/01/10 10:27:20;;;;;;;35.15;17.13;;;;;;;;;;2090870;28;20345;-69
2024/01/10 10:28:21;;;;;;;33.90;17.73;;;;;;;;;;2088123;28;20254;-69
2024/01/10 10:29:32;;;;;;;46.13;18.10;;;;;;;;;;2089112;28;20211;-69
2024/01/10 10:30:34;;;;;;;37.83;17.40;;;;;;;;;;2087474;28;20288;-69
2024/01/10 10:31:36;;;;;;;40.28;18.10;;;;;;;;;;2088915;28;20202;-69
2024/01/10 10:32:37;;;;;;;35.22;17.33;;;;;;;;;;2089447;28;20290;-62
2024/01/10 10:33:39;;;;;;;38.22;18.45;;;;;;;;;;2074988;28;20226;-62
2024/01/10 10:34:41;;;;;;;38.33;17.55;;;;;;;;;;2088666;28;20288;-62
2024/01/10 10:35:44;;;;;;;35.40;17.17;;;;;;;;;;2090638;28;20192;-62
2024/01/10 10:36:49;;;;;;;36.22;18.27;;;;;;;;;;2088862;28;20254;-69
2024/01/10 10:37:51;;;;;;;36.72;17.85;;;;;;;;;;2089461;28;20192;-69
2024/01/10 10:38:53;;;;;;;30.40;16.55;;;;;;;;;;2089140;28;20215;-69
2024/01/10 10:39:54;;;;;;;33.38;16.85;;;;;;;;;;2088593;28;20188;-69
2024/01/10 10:40:56;;;;;;;34.60;16.80;;;;;;;;;;2088894;28;20199;-69
2024/01/10 10:42:00;;;;;;;35.08;17.73;;;;;;;;;;2088436;28;20212;-69
2024/01/10 10:43:07;;;;;;;37.17;17.27;;;;;;;;;;2087353;28;20224;-69
2024/01/10 10:44:09;;;;;;;36.53;18.33;;;;;;;;;;2090384;28;20240;-69
2024/01/10 10:45:25;;;;;;;32.90;16.60;;;;;;;;;;2092200;28;20195;-69
2024/01/10 10:46:27;;;;;;;29.88;15.10;;;;;;;;;;2089786;28;20714;-69
2024/01/10 10:47:33;;;;;;;34.47;16.48;;;;;;;;;;2089731;28;20203;-69
2024/01/10 10:48:35;;;;;;;34.47;16.15;;;;;;;;;;2090493;28;20301;-69
2024/01/10 10:49:40;;;;;;;34.25;17.13;;;;;;;;;;2088815;28;20256;-69
2024/01/10 10:50:46;;;;;;;37.22;17.02;;;;;;;;;;2086492;28;20199;-69
2024/01/10 10:51:48;;;;;;;35.72;17.02;;;;;;;;;;2088963;28;20204;-69
2024/01/10 10:52:50;;;;;;;29.65;15.07;;;;;;;;;;2089083;28;20196;-70
2024/01/10 10:53:52;;;;;;;34.58;16.55;;;;;;;;;;2086848;28;20231;-69
2024/01/10 10:54:55;;;;;;;35.22;16.13;;;;;;;;;;2088442;28;20266;-69
2024/01/10 10:55:57;;;;;;;32.80;16.70;;;;;;;;;;2088526;28;20551;-69
2024/01/10 10:57:01;;;;;;;34.72;16.63;;;;;;;;;;2089284;28;20210;-69
2024/01/10 10:58:05;;;;;;;32.20;17.38;;;;;;;;;;2088330;28;20544;-69
2024/01/10 10:59:13;;;;;;;33.50;16.95;;;;;;;;;;2089500;28;20219;-69
2024/01/10 11:00:15;;;;;;;38.92;16.40;;;;;;;;;;2087104;28;20203;-69
2024/01/10 11:01:17;;;;;;;31.23;16.88;;;;;;;;;;2087220;28;20242;-69
2024/01/10 11:02:22;;;;;;;30.67;16.17;;;;;;;;;;2090925;28;20193;-69
2024/01/10 11:03:29;;;;;;;34.28;17.73;;;;;;;;;;2086944;28;20220;-69
2024/01/10 11:04:31;;;;;;;37.63;17.05;;;;;;;;;;2089025;28;20220;-69
2024/01/10 11:05:32;;;;;;;33.17;17.02;;;;;;;;;;2088383;28;20204;-69
2024/01/10 11:06:34;;;;;;;38.05;18.70;;;;;;;;;;2090803;28;20636;-69
2024/01/10 11:07:36;;;;;;;35.78;18.52;;;;;;;;;;2087965;28;20200;-68
2024/01/10 11:08:38;;;;;;;33.45;17.48;;;;;;;;;;2087085;28;20219;-68
2024/01/10 11:09:41;;;;;;;38.17;18.83;;;;;;;;;;2086821;28;20287;-68
2024/01/10 11:10:43;;;;;;;34.67;17.80;;;;;;;;;;2088895;28;20200;-68
2024/01/10 11:11:56;;;;;;;36.13;17.67;;;;;;;;;;2088278;28;20196;-68
2024/01/10 11:13:16;;;;;;;33.72;17.60;;;;;;;;;;2088037;28;20257;-68
2024/01/10 11:14:18;;;;;;;36.63;17.90;;;;;;;;;;2088073;28;20264;-68
2024/01/10 11:15:25;;;;;;;30.95;16.95;;;;;;;;;;2089608;28;20209;-68
2024/01/10 11:16:26;;;;;;;38.13;18.30;;;;;;;;;;2090892;28;20195;-68
2024/01/10 11:17:40;;;;;;;40.03;17.77;;;;;;;;;;2090203;28;20202;-68
2024/01/10 11:18:47;;;;;;;32.22;16.77;;;;;;;;;;2089138;28;20246;-68
2024/01/10 11:20:09;;;;;;;28.25;16.42;;;;;;;;;;2090706;28;20648;-68
2024/01/10 11:21:17;;;;;;;32.95;16.27;;;;;;;;;;2088317;28;20220;-68
2024/01/10 11:22:32;;;;;;;30.92;16.00;;;;;;;;;;2088002;28;20200;-68
2024/01/10 11:23:46;;;;;;;36.53;18.30;;;;;;;;;;2087188;28;20699;-67
2024/01/10 11:24:48;;;;;;;37.85;17.00;;;;;;;;;;2089184;28;20695;-68
2024/01/10 11:25:50;;;;;;;34.40;16.48;;;;;;;;;;2087368;28;20204;-67
2024/01/10 11:27:06;;;;;;;39.42;17.92;;;;;;;;;;2087404;28;20287;-68
2024/01/10 11:28:08;;;;;;;34.97;17.88;;;;;;;;;;2087718;28;20658;-68
2024/01/10 11:29:10;;;;;;;32.53;16.63;;;;;;;;;;2087826;28;20219;-68
2024/01/10 11:30:12;;;;;;;35.75;16.38;;;;;;;;;;2088439;28;20200;-68
2024/01/10 11:31:15;;;;;;;33.10;16.92;;;;;;;;;;2087868;28;20216;-68
2024/01/10 11:32:23;;;;;;;33.80;15.70;;;;;;;;;;2088437;28;20220;-69
2024/01/10 11:33:30;;;;;;;38.60;17.98;;;;;;;;;;2086787;28;20801;-64
2024/01/10 11:34:31;;;;;;;34.05;16.20;;;;;;;;;;2089940;28;20669;-63
2024/01/10 11:35:33;;;;;;;30.58;17.27;;;;;;;;;;2088344;28;20208;-64
2024/01/10 11:36:35;;;;;;;35.92;16.98;;;;;;;;;;2085511;28;20275;-64
2024/01/10 11:37:42;;;;;;;36.42;16.67;;;;;;;;;;2088290;28;20189;-63
2024/01/10 11:38:54;;;;;;;36.88;17.17;;;;;;;;;;2087299;28;20231;-64
2024/01/10 11:39:55;;;;;;;33.97;15.90;;;;;;;;;;2088008;28;20249;-63
2024/01/10 11:40:57;;;;;;;32.28;16.83;;;;;;;;;;2089775;28;20203;-63
2024/01/10 11:41:59;;;;;;;42.38;18.15;;;;;;;;;;2090836;28;20703;-63
2024/01/10 11:43:00;;;;;;;35.60;17.52;;;;;;;;;;2090330;28;20192;-63
2024/01/10 11:44:08;;;;;;;36.35;16.95;;;;;;;;;;2088325;28;20212;-64
2024/01/10 11:45:09;;;;;;;40.83;17.27;;;;;;;;;;2087910;28;20203;-64
2024/01/10 11:46:12;;;;;;;36.17;17.25;;;;;;;;;;2088708;28;20253;-64
2024/01/10 11:47:18;;;;;;;40.33;16.13;;;;;;;;;;2088814;28;20185;-64
2024/01/10 11:48:28;;;;;;;38.47;18.23;;;;;;;;;;2080840;28;20196;-61
2024/01/10 11:49:30;;;;;;;35.42;16.17;;;;;;;;;;2088179;28;20196;-61
2024/01/10 11:50:32;;;;;;;32.20;16.90;;;;;;;;;;2088186;28;20210;-62
2024/01/10 11:51:35;;;;;;;32.55;16.60;;;;;;;;;;2089597;28;20185;-57
2024/01/10 11:52:36;;;;;;;34.42;16.42;;;;;;;;;;2088835;28;20192;-57
2024/01/10 11:53:42;;;;;;;37.55;16.75;;;;;;;;;;2087275;28;20235;-57
2024/01/10 11:54:44;;;;;;;37.10;17.85;;;;;;;;;;2088202;28;20623;-58
2024/01/10 11:55:48;;;;;;;31.77;16.27;;;;;;;;;;2088969;28;20212;-58
2024/01/10 11:56:49;;;;;;;31.52;16.50;;;;;;;;;;2089648;28;20256;-58
2024/01/10 11:58:07;;;;;;;30.35;16.00;;;;;;;;;;2087832;28;20599;-57
2024/01/10 11:59:13;;;;;;;32.58;16.83;;;;;;;;;;2088742;28;20881;-60
2024/01/10 12:00:14;;;;;;;28.73;15.25;;;;;;;;;;2088283;28;20189;-59
2024/01/10 12:01:16;;;;;;;31.10;16.67;;;;;;;;;;2089058;28;20293;-60
2024/01/10 12:02:18;;;;;;;35.05;16.20;;;;;;;;;;2088053;28;20204;-61
2024/01/10 12:03:21;;;;;;;39.13;16.92;;;;;;;;;;2086309;28;20188;-59
2024/01/10 12:04:22;;;;;;;35.25;17.23;;;;;;;;;;2085288;28;20279;-60
2024/01/10 12:05:38;;;;;;;33.58;16.90;;;;;;;;;;2086868;28;20206;-60
2024/01/10 12:06:40;;;;;;;29.90;15.65;;;;;;;;;;2087464;28;20221;-60
2024/01/10 12:07:41;;;;;;;30.00;16.15;;;;;;;;;;2087862;28;20808;-60
2024/01/10 12:08:43;;;;;;;31.95;16.67;;;;;;;;;;2086655;28;20247;-60
2024/01/10 12:09:47;;;;;;;33.33;17.30;;;;;;;;;;2086673;28;20655;-60
2024/01/10 12:10:49;;;;;;;35.53;18.05;;;;;;;;;;2086567;28;20702;-60
2024/01/10 12:11:51;;;;;;;31.27;16.55;;;;;;;;;;2088313;28;20204;-61
2024/01/10 12:12:54;;;;;;;31.85;17.58;;;;;;;;;;2088842;28;20239;-61
2024/01/10 12:13:58;;;;;;;36.50;16.63;;;;;;;;;;2088823;28;20234;-61
2024/01/10 12:15:00;;;;;;;30.02;15.77;;;;;;;;;;2086170;28;20192;-61
2024/01/10 12:16:01;;;;;;;37.85;17.38;;;;;;;;;;2089770;28;20691;-61
2024/01/10 12:17:04;;;;;;;33.17;15.70;;;;;;;;;;2088783;28;20196;-60
2024/01/10 12:18:06;;;;;;;33.97;16.05;;;;;;;;;;2088537;28;20659;-58
2024/01/10 12:19:07;;;;;;;29.55;15.60;;;;;;;;;;2087448;28;20619;-59
2024/01/10 12:20:09;;;;;;;33.25;15.18;;;;;;;;;;2088471;28;20188;-58
2024/01/10 12:21:12;;;;;;;35.00;16.63;;;;;;;;;;2087241;28;20196;-58
2024/01/10 12:22:14;;;;;;;36.10;16.13;;;;;;;;;;2087682;28;20241;-58
2024/01/10 12:23:15;;;;;;;31.33;15.25;;;;;;;;;;2086786;28;20197;-57
2024/01/10 12:24:16;;;;;;;31.23;16.05;;;;;;;;;;2088893;28;20192;-57
2024/01/10 12:25:19;;;;;;;32.60;17.15;;;;;;;;;;2088442;28;20687;-57
2024/01/10 12:26:21;;;;;;;37.58;16.48;;;;;;;;;;2079763;28;20284;-58
2024/01/10 12:27:23;;;;;;;29.20;15.55;;;;;;;;;;2087907;28;20231;-58
2024/01/10 12:28:25;;;;;;;34.47;17.77;;;;;;;;;;2085884;28;20296;-58
2024/01/10 12:29:27;;;;;;;28.15;16.48;;;;;;;;;;2089741;28;20196;-61
2024/01/10 12:30:28;;;;;;;30.20;16.75;;;;;;;;;;2087751;28;20200;-60
2024/01/10 12:31:30;;;;;;;31.85;15.88;;;;;;;;;;2088221;28;20192;-61
2024/01/10 12:32:31;;;;;;;36.55;16.02;;;;;;;;;;2087124;28;20291;-60
2024/01/10 12:33:33;;;;;;;33.90;17.02;;;;;;;;;;2087679;28;20630;-61
2024/01/10 12:34:37;;;;;;;31.30;15.68;;;;;;;;;;2090021;28;20556;-61
2024/01/10 12:35:42;;;;;;;34.45;17.25;;;;;;;;;;2087598;28;20546;-61
2024/01/10 12:36:44;;;;;;;35.90;17.05;;;;;;;;;;2089923;28;20196;-61
2024/01/10 12:37:58;;;;;;;31.73;16.52;;;;;;;;;;2092495;28;20696;-61
2024/01/10 12:39:00;;;;;;;41.83;17.17;;;;;;;;;;2077957;28;20220;-61
2024/01/10 12:40:04;;;;;;;34.75;16.25;;;;;;;;;;2085327;28;20212;-61
2024/01/10 12:41:11;;;;;;;36.92;16.83;;;;;;;;;;2088066;28;20200;-61
2024/01/10 12:42:12;;;;;;;40.88;16.13;;;;;;;;;;2086653;28;20199;-61
2024/01/10 12:43:14;;;;;;;34.47;17.90;;;;;;;;;;2086216;28;20234;-61
2024/01/10 12:44:15;;;;;;;36.30;17.85;;;;;;;;;;2087692;28;20224;-61
2024/01/10 12:45:21;;;;;;;40.67;17.23;;;;;;;;;;2088429;28;20215;-61
2024/01/10 12:46:25;;;;;;;36.20;16.08;;;;;;;;;;2088080;28;20667;-61
2024/01/10 12:47:27;;;;;;;34.33;17.73;;;;;;;;;;2087705;28;20275;-61
2024/01/10 12:48:28;;;;;;;35.00;17.05;;;;;;;;;;2077494;28;20216;-61
2024/01/10 12:49:30;;;;;;;32.08;16.77;;;;;;;;;;2087157;28;20200;-62
2024/01/10 12:50:32;;;;;;;32.42;17.55;;;;;;;;;;2088239;28;20209;-59
2024/01/10 12:51:36;;;;;;;33.25;17.50;;;;;;;;;;2086475;28;20207;-59
2024/01/10 12:52:39;;;;;;;32.15;17.48;;;;;;;;;;2087560;28;20212;-59
2024/01/10 12:53:44;;;;;;;33.05;16.92;;;;;;;;;;2086024;28;20228;-59
2024/01/10 12:54:45;;;;;;;39.90;17.25;;;;;;;;;;2086507;28;20204;-59
2024/01/10 12:55:46;;;;;;;36.63;18.52;;;;;;;;;;2088052;28;20196;-59
2024/01/10 12:56:50;;;;;;;41.17;18.77;;;;;;;;;;2088258;28;20195;-58
2024/01/10 12:57:51;;;;;;;31.60;16.30;;;;;;;;;;2086191;28;20225;-58
2024/01/10 12:58:53;;;;;;;37.40;18.90;;;;;;;;;;2083052;28;20228;-58
2024/01/10 12:59:54;;;;;;;43.40;18.85;;;;;;;;;;2087792;28;20203;-58
2024/01/10 13:00:56;;;;;;;31.33;17.42;;;;;;;;;;2088391;28;20219;-58
2024/01/10 13:01:57;;;;;;;32.83;17.67;;;;;;;;;;2090113;28;20613;-59
2024/01/10 13:02:58;;;;;;;37.78;16.63;;;;;;;;;;2089314;28;20219;-58
2024/01/10 13:04:00;;;;;;;37.90;17.98;;;;;;;;;;2088498;28;20226;-59
2024/01/10 13:05:04;;;;;;;40.47;19.10;;;;;;;;;;2090656;28;20308;-59
2024/01/10 13:06:06;;;;;;;38.42;18.23;;;;;;;;;;2092058;28;20219;-59
2024/01/10 13:07:07;;;;;;;32.58;17.25;;;;;;;;;;2088708;28;20197;-58
2024/01/10 13:08:09;;;;;;;35.03;17.67;;;;;;;;;;2089843;28;20922;-58
2024/01/10 13:09:10;;;;;;;37.63;18.95;;;;;;;;;;2089544;28;20642;-59
2024/01/10 13:10:12;;;;;;;35.58;17.73;;;;;;;;;;2088546;28;20196;-59
2024/01/10 13:11:14;;;;;;;44.33;18.35;;;;;;;;;;2089043;28;20788;-59
2024/01/10 13:12:15;;;;;;;38.63;18.80;;;;;;;;;;2088428;28;20224;-58
2024/01/10 13:13:21;;;;;;;38.75;17.95;;;;;;;;;;2088602;28;20652;-59
2024/01/10 13:14:23;;;;;;;38.03;18.58;;;;;;;;;;2089344;28;20287;-58
2024/01/10 13:15:24;;;;;;;36.47;18.00;;;;;;;;;;2089750;28;20188;-59
2024/01/10 13:16:25;;;;;;;36.20;19.00;;;;;;;;;;2089272;28;20618;-59
2024/01/10 13:17:27;;;;;;;42.53;19.05;;;;;;;;;;2089452;28;20193;-58
2024/01/10 13:18:28;;;;;;;40.42;19.23;;;;;;;;;;2088282;28;20201;-58
2024/01/10 13:19:30;;;;;;;38.58;18.63;;;;;;;;;;2092660;28;20196;-58
2024/01/10 13:20:32;;;;;;;40.53;19.88;;;;;;;;;;2091526;28;20222;-59
2024/01/10 13:21:34;;;;;;;38.08;18.15;;;;;;;;;;2090160;28;20529;-59
2024/01/10 13:22:36;;;;;;;32.83;18.10;;;;;;;;;;2089398;28;20188;-58
2024/01/10 13:23:37;;;;;;;41.45;20.25;;;;;;;;;;2088402;28;20265;-58
2024/01/10 13:24:38;;;;;;;34.88;19.25;;;;;;;;;;2089244;28;20292;-59
2024/01/10 13:25:40;;;;;;;33.28;17.42;;;;;;;;;;2090263;28;20648;-59
2024/01/10 13:26:41;;;;;;;42.45;16.95;;;;;;;;;;2091168;28;20489;-59
2024/01/10 13:27:42;;;;;;;37.60;17.88;;;;;;;;;;2092373;28;20202;-59
2024/01/10 13:28:44;;;;;;;35.58;19.52;;;;;;;;;;2088229;28;20228;-59
2024/01/10 13:29:45;;;;;;;42.33;18.83;;;;;;;;;;2088780;28;20694;-61
2024/01/10 13:30:47;;;;;;;33.83;19.63;;;;;;;;;;2092876;28;20277;-61
2024/01/10 13:31:49;;;;;;;39.95;18.90;;;;;;;;;;2092820;28;20249;-63
2024/01/10 13:32:51;;;;;;;39.67;20.00;;;;;;;;;;2089373;28;20196;-64
2024/01/10 13:33:52;;;;;;;36.40;18.80;;;;;;;;;;2088617;28;20851;-62
2024/01/10 13:34:56;;;;;;;32.47;17.55;;;;;;;;;;2088954;28;20246;-58
2024/01/10 13:35:59;;;;;;;37.20;18.90;;;;;;;;;;2089636;28;20283;-58
2024/01/10 13:37:02;;;;;;;37.70;18.42;;;;;;;;;;2088461;28;20311;-58
2024/01/10 13:38:04;;;;;;;44.45;18.88;;;;;;;;;;2096090;28;20568;-62
2024/01/10 13:39:06;;;;;;;35.25;17.55;;;;;;;;;;2088175;28;20215;-61
2024/01/10 13:40:09;;;;;;;35.38;18.23;;;;;;;;;;2098953;28;20190;-61
2024/01/10 13:41:10;;;;;;;42.65;20.33;;;;;;;;;;2098038;28;20197;-61
2024/01/10 13:42:12;;;;;;;40.03;20.08;;;;;;;;;;2090057;28;20200;-62
2024/01/10 13:43:14;;;;;;;36.78;20.02;;;;;;;;;;2087018;28;20190;-62
2024/01/10 13:44:16;;;;;;;44.22;19.25;;;;;;;;;;2090128;28;20551;-62
2024/01/10 13:45:18;;;;;;;37.55;19.20;;;;;;;;;;2090680;28;20199;-63
2024/01/10 13:46:19;;;;;;;56.30;19.83;;;;;;;;;;2090079;28;20210;-62
2024/01/10 13:47:21;;;;;;;40.22;20.65;;;;;;;;;;2089299;28;20268;-62
2024/01/10 13:48:23;;;;;;;40.05;18.92;;;;;;;;;;2088240;28;20204;-62
2024/01/10 13:49:24;;;;;;;38.88;19.90;;;;;;;;;;2089379;28;20196;-62
2024/01/10 13:50:27;;;;;;;43.88;21.85;;;;;;;;;;2090126;28;20227;-62
2024/01/10 13:51:28;;;;;;;36.47;18.45;;;;;;;;;;2089953;28;20204;-62
2024/01/10 13:52:30;;;;;;;36.67;19.52;;;;;;;;;;2088054;28;20644;-62
2024/01/10 13:53:31;;;;;;;39.58;20.40;;;;;;;;;;2085879;28;20206;-62
2024/01/10 13:54:33;;;;;;;36.00;19.90;;;;;;;;;;2088464;28;20207;-62
2024/01/10 13:55:35;;;;;;;40.70;20.75;;;;;;;;;;2088373;28;20731;-62
2024/01/10 13:56:39;;;;;;;37.83;19.17;;;;;;;;;;2088288;28;20192;-62
2024/01/10 13:57:41;;;;;;;35.42;19.60;;;;;;;;;;2089874;28;20838;-62
2024/01/10 13:58:42;;;;;;;67.85;36.67;;;;;;;;;;2089808;28;20227;-63
2024/01/10 13:59:44;;;;;;;132.85;69.00;;;;;;;;;;2088514;28;20595;-62
2024/01/10 14:00:46;;;;;;;111.13;53.97;;;;;;;;;;2087479;28;20192;-64
2024/01/10 14:01:48;;;;;;;61.50;32.63;;;;;;;;;;2088719;28;20222;-63
2024/01/10 14:02:50;;;;;;;70.45;37.45;;;;;;;;;;2087940;28;20193;-62
2024/01/10 14:03:52;;;;;;;42.28;21.20;;;;;;;;;;2087765;28;20640;-62
2024/01/10 14:04:59;;;;;;;36.65;20.05;;;;;;;;;;2089042;28;20204;-59
2024/01/10 14:06:01;;;;;;;37.83;21.30;;;;;;;;;;2088691;28;20557;-62
2024/01/10 14:07:04;;;;;;;38.33;22.20;;;;;;;;;;2086637;28;20242;-60
2024/01/10 14:08:05;;;;;;;37.45;19.90;;;;;;;;;;2088320;28;20208;-60
2024/01/10 14:09:09;;;;;;;39.33;21.23;;;;;;;;;;2089780;28;20219;-60
2024/01/10 14:10:11;;;;;;;51.55;20.80;;;;;;;;;;2091131;28;20241;-60
2024/01/10 14:11:12;;;;;;;43.10;21.73;;;;;;;;;;2088966;28;20201;-59
2024/01/10 14:12:14;;;;;;;36.83;20.58;;;;;;;;;;2096902;28;20224;-59
2024/01/10 14:13:16;;;;;;;38.58;21.85;;;;;;;;;;2095787;28;20201;-59
2024/01/10 14:14:18;;;;;;;33.72;20.90;;;;;;;;;;2088757;28;20198;-59
2024/01/10 14:15:22;;;;;;;35.40;21.80;;;;;;;;;;2086459;28;20202;-59